createdAt,value
2022-11-30T08:25:56.874Z,22.83
2022-11-30T08:28:24.833Z,21.80
2022-11-30T08:30:52.890Z,23.83
2022-11-30T08:33:21.009Z,22.23
2022-11-30T08:35:48.980Z,22.00
2022-11-30T08:38:16.973Z,23.20
2022-11-30T08:40:44.974Z,23.13
2022-11-30T08:43:14.391Z,23.97
2022-11-30T08:45:42.435Z,23.50
2022-11-30T08:48:10.525Z,23.87
2022-11-30T08:50:38.539Z,22.67
2022-11-30T08:53:06.695Z,22.53
2022-11-30T08:55:35.121Z,23.40
2022-11-30T08:58:03.144Z,24.70
2022-11-30T09:00:32.602Z,23.70
2022-11-30T09:03:00.787Z,24.03
2022-11-30T09:05:28.852Z,25.50
2022-11-30T09:07:57.010Z,25.27
2022-11-30T09:10:24.995Z,26.67
2022-11-30T09:12:52.993Z,28.33
2022-11-30T09:15:20.954Z,30.80
2022-11-30T09:17:50.340Z,32.50
2022-11-30T09:20:18.494Z,32.57
2022-11-30T09:22:46.582Z,34.50
2022-11-30T09:25:14.621Z,37.60
2022-11-30T09:27:42.710Z,37.90
2022-11-30T09:30:11.590Z,37.83
2022-11-30T09:32:39.607Z,37.77
2022-11-30T09:35:12.801Z,36.87
2022-11-30T09:37:41.394Z,36.17
2022-11-30T09:40:11.594Z,34.03
2022-11-30T09:42:46.994Z,36.50
2022-11-30T09:45:19.439Z,35.50
2022-11-30T09:48:23.237Z,31.67
2022-11-30T09:50:54.194Z,32.30
2022-11-30T09:53:29.699Z,32.93
2022-11-30T09:56:00.041Z,33.87
2022-11-30T09:58:37.400Z,33.27
2022-11-30T10:01:09.988Z,31.87
2022-11-30T10:03:38.424Z,35.20
2022-11-30T10:06:12.712Z,34.33
2022-11-30T10:08:55.756Z,38.00
2022-11-30T10:11:36.998Z,39.93
2022-11-30T10:14:24.176Z,36.27
2022-11-30T10:16:59.306Z,37.67
2022-11-30T10:19:44.107Z,37.90
2022-11-30T10:22:22.175Z,40.53
2022-11-30T10:25:08.695Z,43.57
2022-11-30T10:27:50.012Z,39.60
2022-11-30T10:30:22.124Z,38.60
2022-11-30T10:32:53.894Z,35.60
2022-11-30T10:35:30.045Z,35.73
2022-11-30T10:38:04.244Z,36.97
2022-11-30T10:40:39.230Z,33.93
2022-11-30T10:43:18.746Z,33.57
2022-11-30T10:45:49.369Z,35.23
2022-11-30T10:48:22.812Z,36.07
2022-11-30T10:50:50.918Z,35.50
2022-11-30T10:53:20.411Z,34.87
2022-11-30T10:55:55.926Z,33.93
2022-11-30T10:58:28.725Z,33.67
2022-11-30T11:01:05.476Z,33.73
2022-11-30T11:03:33.833Z,34.00
2022-11-30T11:06:26.864Z,34.07
2022-11-30T11:08:56.347Z,35.13
2022-11-30T11:11:35.067Z,36.97
2022-11-30T11:14:16.931Z,35.57
2022-11-30T11:16:58.077Z,35.03
2022-11-30T11:19:38.414Z,35.07
2022-11-30T11:22:15.191Z,33.77
2022-11-30T11:24:45.102Z,35.60
2022-11-30T11:27:24.311Z,38.33
2022-11-30T11:30:02.886Z,38.03
2022-11-30T11:32:31.473Z,36.00
2022-11-30T11:34:59.785Z,36.90
2022-11-30T11:37:31.042Z,37.87
2022-11-30T11:40:03.517Z,38.17
2022-11-30T11:42:35.101Z,36.50
2022-11-30T11:45:04.182Z,38.03
2022-11-30T11:47:40.466Z,38.13
2022-11-30T11:51:04.384Z,38.80
2022-11-30T11:53:23.098Z,39.40
2022-11-30T11:55:58.335Z,39.47
2022-11-30T11:58:36.482Z,39.63
2022-11-30T12:01:37.874Z,38.53
2022-11-30T12:04:06.620Z,38.70
2022-11-30T12:06:35.493Z,42.57
2022-11-30T12:09:10.066Z,42.13
2022-11-30T12:11:44.063Z,43.03
2022-11-30T12:14:14.903Z,41.77
2022-11-30T12:16:58.024Z,42.17
2022-11-30T12:19:34.640Z,41.43
2022-11-30T12:22:16.278Z,41.20
2022-11-30T12:25:10.060Z,41.33
2022-11-30T12:27:53.600Z,44.00
2022-11-30T12:30:26.231Z,45.10
2022-11-30T12:33:11.788Z,44.27
2022-11-30T12:35:57.420Z,44.77
2022-11-30T12:38:38.068Z,44.07
2022-11-30T12:41:20.367Z,43.87
2022-11-30T12:43:55.546Z,44.17
2022-11-30T12:46:33.447Z,47.97
2022-11-30T12:49:23.080Z,46.23
2022-11-30T12:51:58.496Z,47.17
2022-11-30T12:54:35.548Z,46.50
2022-11-30T12:57:13.929Z,47.67
2022-11-30T12:59:49.398Z,47.97
2022-11-30T13:02:41.697Z,49.33
2022-11-30T13:05:12.571Z,48.57
2022-11-30T13:07:45.279Z,46.57
2022-11-30T13:10:22.903Z,48.87
2022-11-30T13:12:54.459Z,49.50
2022-11-30T13:15:26.964Z,47.37
2022-11-30T13:17:56.355Z,49.90
2022-11-30T13:20:31.951Z,50.60
2022-11-30T13:23:04.259Z,47.73
2022-11-30T13:28:36.647Z,47.83
2022-11-30T13:31:13.116Z,44.50
2022-11-30T13:33:49.274Z,45.73
2022-11-30T13:36:36.053Z,45.73
2022-11-30T13:39:25.661Z,43.87
2022-11-30T13:42:37.549Z,44.23
2022-11-30T13:45:32.105Z,45.43
2022-11-30T13:48:19.157Z,45.40
2022-11-30T13:50:49.594Z,44.43
2022-11-30T13:53:23.554Z,41.70
2022-11-30T13:55:56.578Z,42.03
2022-11-30T13:58:25.304Z,40.60
2022-11-30T14:01:05.843Z,42.00
2022-11-30T14:03:35.323Z,42.70
2022-11-30T14:06:28.937Z,43.83
2022-11-30T14:08:58.542Z,43.23
2022-11-30T14:11:43.637Z,43.93
2022-11-30T14:14:45.617Z,44.60
2022-11-30T14:17:24.083Z,42.93
2022-11-30T14:19:54.171Z,40.93
2022-11-30T14:22:22.946Z,39.07
2022-11-30T14:24:52.515Z,40.37
2022-11-30T14:27:24.325Z,40.27
2022-11-30T14:29:55.807Z,43.17
2022-11-30T14:32:37.873Z,42.37
2022-11-30T14:35:11.610Z,39.33
2022-11-30T14:37:47.079Z,38.57
2022-11-30T14:40:21.776Z,38.93
2022-11-30T14:42:52.734Z,42.17
2022-11-30T14:45:23.291Z,43.10
2022-11-30T14:47:53.857Z,42.37
2022-11-30T14:50:26.129Z,43.27
2022-11-30T14:53:04.420Z,41.80
2022-11-30T14:55:40.902Z,39.77
2022-11-30T14:58:19.278Z,36.73
2022-11-30T15:00:48.497Z,37.53
2022-11-30T15:03:37.312Z,36.67
2022-11-30T15:06:08.834Z,38.73
2022-11-30T15:08:40.779Z,40.03
2022-11-30T15:11:13.033Z,41.20
2022-11-30T15:16:20.178Z,39.77
2022-11-30T15:18:48.595Z,37.83
